createdAt,value
2019-02-08T00:00:18.289Z,17.10
2019-02-08T00:03:22.193Z,18.47
2019-02-08T00:06:26.532Z,26.80
2019-02-08T00:09:30.420Z,23.77
2019-02-08T00:12:34.295Z,23.80
2019-02-08T00:15:38.307Z,18.97
2019-02-08T00:18:42.307Z,25.93
2019-02-08T00:21:46.225Z,32.10
2019-02-08T00:24:50.066Z,25.33
2019-02-08T00:27:53.938Z,21.13
2019-02-08T00:30:57.825Z,28.83
2019-02-08T00:34:01.761Z,25.50
2019-02-08T00:37:05.641Z,25.40
2019-02-08T00:40:11.815Z,26.90
2019-02-08T00:43:15.721Z,21.77
2019-02-08T00:46:19.692Z,29.90
2019-02-08T00:49:23.524Z,23.73
2019-02-08T00:52:27.358Z,29.40
2019-02-08T00:55:31.378Z,17.80
2019-02-08T00:58:35.237Z,21.90
2019-02-08T01:01:39.171Z,22.57
2019-02-08T01:04:43.083Z,27.43
2019-02-08T01:07:47.493Z,37.53
2019-02-08T01:10:51.611Z,22.40
2019-02-08T01:13:55.470Z,20.93
2019-02-08T01:16:59.293Z,24.70
2019-02-08T01:20:03.298Z,27.80
2019-02-08T01:23:07.357Z,22.50
2019-02-08T01:26:11.326Z,18.80
2019-02-08T01:29:15.211Z,20.03
2019-02-08T01:32:19.074Z,26.43
2019-02-08T01:35:24.357Z,15.33
2019-02-08T01:38:28.315Z,31.40
2019-02-08T01:41:32.138Z,17.90
2019-02-08T01:44:36.176Z,24.97
2019-02-08T01:47:40.009Z,18.30
2019-02-08T01:50:43.913Z,20.23
2019-02-08T01:53:48.894Z,21.03
2019-02-08T01:56:53.047Z,19.70
2019-02-08T01:59:56.935Z,20.07
2019-02-08T02:03:02.796Z,23.30
2019-02-08T02:06:06.798Z,12.53
2019-02-08T02:09:10.888Z,15.77
2019-02-08T02:12:14.765Z,20.10
2019-02-08T02:15:18.882Z,20.07
2019-02-08T02:18:22.778Z,25.43
2019-02-08T02:21:26.593Z,28.80
2019-02-08T02:24:30.540Z,19.73
2019-02-08T02:27:34.384Z,32.43
2019-02-08T02:30:38.505Z,17.43
2019-02-08T02:33:42.315Z,15.00
2019-02-08T02:36:46.213Z,21.97
2019-02-08T02:39:50.087Z,23.70
2019-02-08T02:42:54.802Z,27.17
2019-02-08T02:45:58.708Z,12.80
2019-02-08T02:49:02.689Z,13.90
2019-02-08T02:52:06.543Z,22.53
2019-02-08T02:55:11.262Z,17.73
2019-02-08T02:58:15.230Z,17.70
2019-02-08T03:01:19.058Z,24.37
2019-02-08T03:04:23.081Z,27.30
2019-02-08T03:07:26.908Z,21.33
2019-02-08T03:10:30.809Z,12.67
2019-02-08T03:13:34.652Z,24.37
2019-02-08T03:16:38.560Z,18.73
2019-02-08T03:19:42.558Z,20.77
2019-02-08T03:22:46.539Z,24.47
2019-02-08T03:25:50.506Z,21.30
2019-02-08T03:28:54.418Z,18.27
2019-02-08T03:31:58.218Z,28.73
2019-02-08T03:35:02.229Z,15.40
2019-02-08T03:38:06.387Z,19.67
2019-02-08T03:41:10.377Z,17.10
2019-02-08T03:44:14.449Z,24.00
2019-02-08T03:47:18.321Z,22.93
2019-02-08T03:50:22.627Z,23.03
2019-02-08T03:53:26.515Z,21.43
2019-02-08T03:56:30.345Z,19.40
2019-02-08T03:59:34.624Z,23.57
2019-02-08T04:02:38.607Z,25.73
2019-02-08T04:05:42.566Z,19.17
2019-02-08T04:08:46.407Z,24.23
2019-02-08T04:11:50.276Z,19.67
2019-02-08T04:14:54.168Z,21.57
2019-02-08T04:17:58.063Z,17.90
2019-02-08T04:21:01.982Z,13.67
2019-02-08T04:24:05.944Z,26.27
2019-02-08T04:27:09.783Z,26.50
2019-02-08T04:30:20.278Z,20.23
2019-02-08T04:33:24.090Z,21.77
2019-02-08T04:36:27.899Z,19.73
2019-02-08T04:39:31.722Z,27.87
2019-02-08T04:42:35.543Z,18.97
2019-02-08T04:45:39.435Z,14.20
2019-02-08T04:48:43.325Z,18.47
2019-02-08T04:51:47.130Z,30.33
2019-02-08T04:54:50.949Z,23.70
2019-02-08T04:57:54.835Z,30.27
2019-02-08T05:00:58.794Z,22.97
2019-02-08T05:04:02.580Z,20.77
2019-02-08T05:07:06.554Z,27.33
2019-02-08T05:10:11.866Z,26.30
2019-02-08T05:13:15.825Z,24.70
2019-02-08T05:16:19.824Z,23.43
2019-02-08T05:19:23.644Z,23.80
2019-02-08T05:22:27.541Z,15.90
2019-02-08T05:25:31.338Z,26.67
2019-02-08T05:28:35.226Z,18.33
2019-02-08T05:31:39.036Z,21.83
2019-02-08T05:34:42.938Z,29.83
2019-02-08T05:37:46.759Z,19.23
2019-02-08T05:40:50.559Z,16.90
2019-02-08T05:43:54.470Z,31.30
2019-02-08T05:46:58.335Z,21.73
2019-02-08T05:50:02.159Z,30.00
2019-02-08T05:53:06.262Z,25.03
2019-02-08T05:56:10.058Z,24.90
2019-02-08T05:59:14.060Z,29.63
2019-02-08T06:02:18.054Z,26.57
2019-02-08T06:05:22.453Z,21.20
2019-02-08T06:08:26.359Z,26.73
2019-02-08T06:11:30.217Z,31.30
2019-02-08T06:14:34.230Z,28.00
2019-02-08T06:17:38.187Z,29.23
2019-02-08T06:20:42.562Z,27.10
2019-02-08T06:23:46.349Z,25.93
2019-02-08T06:26:50.237Z,29.57
2019-02-08T06:29:54.068Z,26.00
2019-02-08T06:32:58.007Z,25.53
2019-02-08T06:36:01.912Z,28.77
2019-02-08T06:39:09.010Z,33.17
2019-02-08T06:42:12.837Z,30.30
2019-02-08T06:45:18.162Z,30.30
2019-02-08T06:48:22.145Z,34.53
2019-02-08T06:51:26.003Z,28.37
2019-02-08T06:54:31.272Z,27.87
2019-02-08T06:57:40.318Z,29.07
2019-02-08T07:01:18.073Z,26.87
2019-02-08T07:04:30.054Z,26.50
2019-02-08T07:07:47.920Z,23.20
2019-02-08T07:11:14.050Z,30.90
2019-02-08T07:14:43.060Z,31.40
2019-02-08T07:18:08.758Z,25.67
2019-02-08T07:21:31.899Z,25.90
2019-02-08T07:24:57.747Z,19.67
2019-02-08T07:28:19.230Z,31.27
2019-02-08T07:31:41.057Z,35.73
2019-02-08T07:35:19.099Z,25.97
2019-02-08T07:38:35.791Z,24.57
2019-02-08T07:42:02.344Z,23.03
2019-02-08T07:45:21.101Z,20.60
2019-02-08T07:48:43.797Z,24.17
2019-02-08T07:51:56.470Z,21.97
2019-02-08T07:55:26.204Z,29.67
2019-02-08T07:59:05.095Z,22.23
2019-02-08T08:02:28.013Z,21.17
2019-02-08T08:05:39.982Z,17.50
2019-02-08T08:09:01.975Z,19.47
2019-02-08T08:12:32.142Z,22.87
2019-02-08T08:16:04.060Z,22.93
2019-02-08T08:19:25.935Z,28.07
2019-02-08T08:22:55.256Z,20.10
2019-02-08T08:26:13.875Z,18.30
2019-02-08T08:29:52.936Z,22.33
2019-02-08T08:33:10.961Z,18.10
2019-02-08T08:37:05.241Z,18.00
2019-02-08T08:40:41.536Z,24.90
2019-02-08T08:44:37.681Z,19.27
2019-02-08T08:48:14.507Z,18.03
2019-02-08T08:51:55.604Z,19.53
2019-02-08T08:55:42.136Z,24.70
2019-02-08T08:59:36.368Z,18.73
2019-02-08T09:03:22.450Z,25.03
2019-02-08T09:06:46.426Z,25.13
2019-02-08T09:10:18.687Z,21.13
2019-02-08T09:14:00.752Z,22.20
2019-02-08T09:17:44.697Z,21.23
2019-02-08T09:21:22.527Z,26.27
2019-02-08T09:25:12.629Z,23.90
2019-02-08T09:28:27.210Z,15.40
2019-02-08T09:32:07.241Z,22.40
2019-02-08T09:35:41.810Z,16.23
2019-02-08T09:39:20.016Z,23.97
2019-02-08T09:42:49.959Z,19.70
2019-02-08T09:46:34.694Z,23.97
2019-02-08T09:50:23.438Z,19.30
2019-02-08T09:54:10.073Z,18.77
2019-02-08T09:57:47.245Z,12.53
2019-02-08T10:01:28.173Z,19.67
2019-02-08T10:05:08.395Z,16.40
2019-02-08T10:08:37.790Z,18.17
2019-02-08T10:12:24.465Z,15.77
2019-02-08T10:16:20.373Z,12.27
2019-02-08T10:19:56.944Z,15.80
2019-02-08T10:23:28.523Z,8.77
2019-02-08T10:27:15.365Z,12.50
2019-02-08T10:30:49.383Z,11.77
2019-02-08T10:34:28.861Z,11.73
2019-02-08T10:38:12.264Z,15.07
2019-02-08T10:42:05.561Z,16.20
2019-02-08T10:45:45.707Z,14.47
2019-02-08T10:49:29.993Z,14.50
2019-02-08T10:53:09.465Z,14.87
2019-02-08T10:57:04.019Z,15.47
2019-02-08T11:00:49.223Z,12.37
2019-02-08T11:04:42.218Z,15.70
2019-02-08T11:08:30.063Z,14.67
2019-02-08T11:12:16.611Z,20.77
2019-02-08T11:15:56.828Z,13.20
2019-02-08T11:19:18.482Z,16.67
2019-02-08T11:22:22.849Z,13.80
2019-02-08T11:25:26.786Z,17.33
2019-02-08T11:28:30.586Z,8.60
2019-02-08T11:31:34.541Z,12.60
2019-02-08T11:34:38.461Z,15.17
2019-02-08T11:37:42.516Z,12.60
2019-02-08T11:40:46.462Z,19.67
2019-02-08T11:43:50.357Z,15.37
2019-02-08T11:46:54.326Z,12.60
2019-02-08T11:49:58.260Z,14.50
2019-02-08T11:53:02.089Z,14.43
2019-02-08T11:56:06.763Z,17.27
2019-02-08T11:59:10.687Z,14.83
2019-02-08T12:02:14.570Z,18.67
2019-02-08T12:05:18.543Z,17.50
2019-02-08T12:08:22.442Z,18.73
2019-02-08T12:11:26.385Z,16.03
2019-02-08T12:14:30.594Z,15.57
2019-02-08T12:17:34.618Z,17.20
2019-02-08T12:20:38.701Z,17.73
2019-02-08T12:23:42.580Z,14.97
2019-02-08T12:26:46.571Z,20.57
2019-02-08T12:29:50.377Z,19.47
2019-02-08T12:32:54.188Z,17.50
2019-02-08T12:35:58.026Z,14.80
2019-02-08T12:39:01.825Z,18.30
2019-02-08T12:42:05.819Z,19.60
2019-02-08T12:45:09.883Z,16.60
2019-02-08T12:48:13.705Z,15.57
2019-02-08T12:51:17.968Z,18.77
2019-02-08T12:54:21.945Z,19.37
2019-02-08T12:57:25.784Z,17.20
2019-02-08T13:00:29.751Z,15.57
2019-02-08T13:03:33.638Z,13.97
2019-02-08T13:06:37.517Z,16.10
2019-02-08T13:09:41.332Z,17.30
2019-02-08T13:12:45.391Z,18.87
2019-02-08T13:15:49.270Z,14.43
2019-02-08T13:18:53.081Z,15.73
2019-02-08T13:21:56.923Z,17.70
2019-02-08T13:25:00.793Z,17.40
2019-02-08T13:28:04.682Z,16.87
2019-02-08T13:31:08.681Z,18.70
2019-02-08T13:34:12.668Z,20.13
2019-02-08T13:37:16.610Z,16.73
2019-02-08T13:40:21.551Z,20.47
2019-02-08T13:43:25.324Z,16.97
2019-02-08T13:46:29.186Z,18.13
2019-02-08T13:49:33.009Z,19.67
2019-02-08T13:52:36.905Z,18.47
2019-02-08T13:55:40.710Z,19.00
2019-02-08T13:58:44.630Z,19.50
2019-02-08T14:01:48.511Z,17.87
2019-02-08T14:04:52.337Z,19.73
2019-02-08T14:07:56.237Z,20.30
2019-02-08T14:11:00.050Z,18.43
2019-02-08T14:14:04.076Z,22.37
2019-02-08T14:17:08.070Z,20.20
2019-02-08T14:20:15.007Z,19.93
2019-02-08T14:23:18.847Z,18.57
2019-02-08T14:26:22.744Z,21.60
2019-02-08T14:29:26.624Z,21.73
2019-02-08T14:32:30.477Z,21.27
2019-02-08T14:35:34.722Z,22.10
2019-02-08T14:38:38.698Z,20.40
2019-02-08T14:41:42.519Z,20.23
2019-02-08T14:44:46.402Z,22.17
2019-02-08T14:47:50.297Z,20.80
2019-02-08T14:50:54.128Z,25.93
2019-02-08T14:53:58.036Z,21.63
2019-02-08T14:57:01.887Z,22.37
2019-02-08T15:00:09.668Z,22.77
2019-02-08T15:03:13.491Z,25.00
2019-02-08T15:06:17.438Z,26.33
2019-02-08T15:09:21.284Z,22.50
2019-02-08T15:12:25.134Z,22.87
2019-02-08T15:15:29.058Z,26.00
2019-02-08T15:18:32.902Z,23.07
2019-02-08T15:21:36.838Z,24.33
2019-02-08T15:24:40.662Z,21.87
2019-02-08T15:27:44.481Z,26.30
2019-02-08T15:30:48.385Z,23.27
2019-02-08T15:33:52.277Z,21.13
2019-02-08T15:36:56.159Z,24.83
2019-02-08T15:40:00.249Z,22.50
2019-02-08T15:43:04.552Z,23.57
2019-02-08T15:46:08.558Z,26.30
2019-02-08T15:49:12.561Z,24.67
2019-02-08T15:52:16.515Z,27.07
2019-02-08T15:55:22.811Z,27.00
2019-02-08T15:58:26.815Z,23.93
2019-02-08T16:01:30.762Z,23.97
2019-02-08T16:04:34.626Z,25.77
2019-02-08T16:07:38.596Z,24.37
2019-02-08T16:10:42.417Z,24.33
2019-02-08T16:13:46.259Z,25.53
2019-02-08T16:16:50.239Z,28.97
2019-02-08T16:19:55.039Z,25.83
2019-02-08T16:22:59.261Z,25.93
2019-02-08T16:26:03.370Z,25.23
2019-02-08T16:29:07.604Z,27.93
2019-02-08T16:32:11.512Z,27.07
2019-02-08T16:35:16.258Z,27.27
2019-02-08T16:38:20.241Z,24.20
2019-02-08T16:41:24.131Z,27.27
2019-02-08T16:44:28.096Z,28.50
2019-02-08T16:47:32.037Z,27.27
2019-02-08T16:50:36.077Z,26.07
2019-02-08T16:53:39.914Z,27.33
2019-02-08T16:56:43.706Z,27.20
2019-02-08T16:59:47.676Z,26.90
2019-02-08T17:02:51.699Z,26.53
2019-02-08T17:05:55.494Z,27.37
2019-02-08T17:08:59.333Z,25.83
2019-02-08T17:12:03.151Z,25.80
2019-02-08T17:15:08.353Z,24.23
2019-02-08T17:18:12.336Z,24.70
2019-02-08T17:21:16.353Z,25.57
2019-02-08T17:24:20.204Z,25.53
2019-02-08T17:27:24.686Z,24.27
2019-02-08T17:30:28.742Z,21.60
2019-02-08T17:33:32.545Z,21.30
2019-02-08T17:36:36.473Z,23.00
2019-02-08T17:39:40.454Z,24.13
2019-02-08T17:42:44.378Z,21.57
2019-02-08T17:45:48.259Z,22.87
2019-02-08T17:48:52.174Z,20.43
2019-02-08T17:51:55.980Z,19.50
2019-02-08T17:54:59.874Z,20.60
2019-02-08T17:58:04.034Z,19.10
2019-02-08T18:01:07.994Z,19.20
2019-02-08T18:04:11.830Z,17.87
2019-02-08T18:07:15.703Z,19.93
2019-02-08T18:10:20.334Z,18.17
2019-02-08T18:13:24.177Z,18.73
2019-02-08T18:16:28.009Z,18.07
2019-02-08T18:19:31.829Z,18.33
2019-02-08T18:22:35.684Z,17.67
2019-02-08T18:25:39.566Z,16.73
2019-02-08T18:28:43.385Z,17.03
2019-02-08T18:31:47.210Z,15.97
2019-02-08T18:34:51.053Z,14.90
2019-02-08T18:37:54.955Z,15.23
2019-02-08T18:40:58.775Z,17.03
2019-02-08T18:44:02.582Z,12.97
2019-02-08T18:47:06.506Z,16.27
2019-02-08T18:50:17.979Z,13.83
2019-02-08T18:53:21.962Z,11.60
2019-02-08T18:56:25.948Z,15.53
2019-02-08T18:59:29.787Z,11.50
2019-02-08T19:02:33.709Z,12.70
2019-02-08T19:05:37.687Z,12.87
2019-02-08T19:08:41.476Z,11.60
2019-02-08T19:11:45.286Z,14.10
2019-02-08T19:14:49.112Z,13.87
2019-02-08T19:17:53.158Z,12.03
2019-02-08T19:20:56.988Z,14.73
2019-02-08T19:24:00.784Z,13.60
2019-02-08T19:27:04.752Z,9.57
2019-02-08T19:30:20.724Z,11.07
2019-02-08T19:33:24.516Z,12.50
2019-02-08T19:36:28.377Z,13.73
2019-02-08T19:39:32.272Z,13.03
2019-02-08T19:42:36.090Z,12.60
2019-02-08T19:45:39.949Z,10.10
2019-02-08T19:48:43.755Z,11.77
2019-02-08T19:51:47.549Z,12.67
2019-02-08T19:54:51.417Z,15.43
2019-02-08T19:57:55.480Z,10.50
2019-02-08T20:00:59.294Z,13.53
2019-02-08T20:04:03.084Z,10.30
2019-02-08T20:07:07.210Z,12.57
2019-02-08T20:10:13.943Z,13.00
2019-02-08T20:13:17.996Z,12.53
2019-02-08T20:16:21.867Z,12.17
2019-02-08T20:19:25.817Z,11.73
2019-02-08T20:22:29.786Z,10.90
2019-02-08T20:25:34.658Z,15.53
2019-02-08T20:28:42.520Z,14.83
2019-02-08T20:31:44.122Z,10.13
2019-02-08T20:34:47.890Z,12.90
2019-02-08T20:37:52.064Z,13.20
2019-02-08T20:40:55.935Z,15.30
2019-02-08T20:43:59.760Z,11.37
2019-02-08T20:47:03.586Z,12.67
2019-02-08T20:50:08.363Z,12.37
2019-02-08T20:53:12.308Z,13.13
2019-02-08T20:56:16.108Z,10.20
2019-02-08T20:59:20.008Z,11.83
2019-02-08T21:02:24.152Z,13.80
2019-02-08T21:05:29.255Z,12.60
2019-02-08T21:08:33.201Z,12.20
2019-02-08T21:11:37.106Z,13.97
2019-02-08T21:14:41.172Z,15.13
2019-02-08T21:17:44.993Z,13.17
2019-02-08T21:20:49.219Z,15.13
2019-02-08T21:23:53.093Z,17.47
2019-02-08T21:26:56.893Z,16.83
2019-02-08T21:30:00.754Z,14.50
2019-02-08T21:33:05.488Z,16.57
2019-02-08T21:36:09.373Z,13.57
2019-02-08T21:39:13.315Z,16.87
2019-02-08T21:42:17.190Z,14.53
2019-02-08T21:45:30.075Z,13.97
2019-02-08T21:48:33.871Z,13.17
2019-02-08T21:51:37.694Z,15.17
2019-02-08T21:54:41.509Z,16.43
2019-02-08T21:57:45.352Z,15.93
2019-02-08T22:00:49.314Z,19.27
2019-02-08T22:03:53.189Z,11.57
2019-02-08T22:06:57.002Z,14.20
2019-02-08T22:10:00.946Z,12.83
2019-02-08T22:13:05.245Z,12.33
2019-02-08T22:16:09.115Z,13.30
2019-02-08T22:19:12.972Z,11.87
2019-02-08T22:22:16.786Z,14.03
2019-02-08T22:25:21.819Z,16.47
2019-02-08T22:28:25.693Z,13.77
2019-02-08T22:31:29.616Z,15.73
2019-02-08T22:34:33.500Z,16.90
2019-02-08T22:37:37.467Z,14.60
2019-02-08T22:40:41.330Z,14.30
2019-02-08T22:43:45.176Z,16.30
2019-02-08T22:46:49.037Z,14.00
2019-02-08T22:49:52.937Z,17.17
2019-02-08T22:52:56.931Z,12.73
2019-02-08T22:56:00.743Z,14.67
2019-02-08T22:59:05.066Z,15.03
2019-02-08T23:02:09.411Z,12.83
2019-02-08T23:05:14.834Z,16.20
2019-02-08T23:08:18.800Z,12.73
2019-02-08T23:11:22.858Z,20.60
2019-02-08T23:14:26.660Z,16.17
2019-02-08T23:17:30.535Z,19.30
2019-02-08T23:20:34.524Z,16.37
2019-02-08T23:23:38.385Z,14.87
2019-02-08T23:26:42.284Z,16.50
2019-02-08T23:29:46.085Z,16.73
2019-02-08T23:32:50.041Z,17.83
2019-02-08T23:35:53.923Z,16.30
2019-02-08T23:38:57.726Z,14.60
2019-02-08T23:42:01.605Z,18.60
2019-02-08T23:45:07.110Z,20.70
2019-02-08T23:48:11.010Z,16.90
2019-02-08T23:51:14.891Z,14.73
2019-02-08T23:54:18.724Z,19.60
2019-02-08T23:57:22.520Z,17.10
